Time;durP1;ratioP1;P1;durP2;ratioP2;P2;SDS_P1;SDS_P2;PMS_P1;PMS_P2;Temp;Humidity;BMP_temperature;BMP_pressure;BME280_temperature;BME280_humidity;BME280_pressure;Samples;Min_cycle;Max_cycle;Signal;HPM_P1;HPM_P2
2021/05/19 00:01:37;;;;;;;27.50;19.85;;;19.10;59.20;;;;;;5016246;28;20049;-59
2021/05/19 00:04:04;;;;;;;26.73;18.95;;;19.00;59.10;;;;;;5016840;28;20135;-58
2021/05/19 00:06:30;;;;;;;27.25;19.30;;;19.10;59.10;;;;;;5016702;28;20146;-58
2021/05/19 00:08:56;;;;;;;28.00;19.17;;;19.10;59.00;;;;;;5016428;28;20136;-58
2021/05/19 00:11:21;;;;;;;26.17;18.33;;;19.10;59.00;;;;;;5016524;28;20410;-58
2021/05/19 00:13:47;;;;;;;25.98;18.17;;;19.10;59.00;;;;;;5016337;28;20087;-58
2021/05/19 00:16:14;;;;;;;25.42;16.88;;;19.10;59.50;;;;;;5016101;28;20503;-59
2021/05/19 00:18:40;;;;;;;27.63;17.42;;;19.00;58.90;;;;;;5016036;28;20151;-58
2021/05/19 00:21:06;;;;;;;24.98;17.90;;;19.10;58.90;;;;;;5016192;28;20079;-58
2021/05/19 00:23:32;;;;;;;25.23;17.20;;;19.10;58.80;;;;;;5016290;28;20136;-58
2021/05/19 00:25:58;;;;;;;21.98;16.30;;;19.00;58.80;;;;;;5016625;28;20060;-58
2021/05/19 00:28:24;;;;;;;23.67;16.73;;;19.10;58.80;;;;;;5016349;28;20055;-58
2021/05/19 00:30:54;;;;;;;22.67;16.02;;;19.10;58.80;;;;;;5016067;28;20048;-58
2021/05/19 00:33:21;;;;;;;22.98;17.20;;;19.00;58.70;;;;;;5015846;28;20056;-58
2021/05/19 00:35:46;;;;;;;24.08;14.88;;;19.00;58.60;;;;;;5016114;28;20130;-58
2021/05/19 00:38:12;;;;;;;20.52;14.45;;;19.00;58.60;;;;;;5016030;28;20049;-58
2021/05/19 00:40:38;;;;;;;22.00;16.02;;;19.00;58.50;;;;;;5015763;28;20052;-57
2021/05/19 00:43:03;;;;;;;19.10;13.52;;;19.00;58.50;;;;;;5015918;28;20061;-62
2021/05/19 00:45:29;;;;;;;20.30;14.25;;;19.00;58.50;;;;;;5014424;28;20075;-57
2021/05/19 00:47:56;;;;;;;20.08;14.07;;;19.00;58.40;;;;;;5015695;28;20493;-58
2021/05/19 00:50:26;;;;;;;18.38;12.82;;;19.00;58.40;;;;;;5015599;28;20051;-58
2021/05/19 00:52:52;;;;;;;20.83;13.95;;;19.00;58.40;;;;;;5015728;28;20045;-58
2021/05/19 00:55:18;;;;;;;18.90;13.40;;;19.00;58.30;;;;;;5030657;28;20048;-58
2021/05/19 00:57:45;;;;;;;19.13;13.68;;;19.00;58.30;;;;;;5015607;28;20055;-58
2021/05/19 01:00:14;;;;;;;16.90;11.63;;;19.00;58.30;;;;;;5015786;28;20054;-58
2021/05/19 01:02:40;;;;;;;16.48;11.82;;;19.00;58.30;;;;;;5015758;28;20053;-57
2021/05/19 01:10:42;;;;;;;17.30;11.32;;;19.00;58.20;;;;;;5015763;28;20122;-57
2021/05/19 01:13:08;;;;;;;15.48;11.57;;;19.00;58.10;;;;;;5015299;28;20088;-58
2021/05/19 01:15:36;;;;;;;15.95;10.35;;;19.00;58.10;;;;;;5014866;28;20087;-58
2021/05/19 01:18:04;;;;;;;19.27;11.38;;;19.00;58.10;;;;;;5015580;28;20103;-58
2021/05/19 01:20:30;;;;;;;18.02;10.90;;;19.00;58.10;;;;;;5015152;28;20049;-58
2021/05/19 01:22:56;;;;;;;15.20;10.07;;;19.00;58.00;;;;;;5014824;28;20045;-58
2021/05/19 01:25:22;;;;;;;16.25;10.95;;;19.00;58.60;;;;;;5015080;28;20561;-58
2021/05/19 01:27:55;;;;;;;15.20;9.55;;;19.00;57.90;;;;;;5014905;28;20080;-59
2021/05/19 01:30:22;;;;;;;15.60;9.65;;;19.00;57.90;;;;;;5015354;28;20095;-58
2021/05/19 01:32:48;;;;;;;13.65;8.85;;;19.00;57.80;;;;;;5014648;28;20044;-60
2021/05/19 01:35:14;;;;;;;14.50;9.63;;;19.00;57.80;;;;;;5014846;28;20058;-58
2021/05/19 01:37:43;;;;;;;14.88;9.43;;;18.90;57.70;;;;;;5014530;28;20096;-57
2021/05/19 01:40:12;;;;;;;16.63;10.38;;;19.00;57.70;;;;;;5014960;28;20103;-58
2021/05/19 01:42:38;;;;;;;13.18;8.88;;;19.00;57.70;;;;;;5014677;28;20428;-58
2021/05/19 01:45:04;;;;;;;12.45;8.68;;;19.00;57.70;;;;;;5014647;28;20497;-58
2021/05/19 01:47:50;;;;;;;13.60;8.23;;;19.00;57.60;;;;;;5014525;28;20052;-57
2021/05/19 01:50:19;;;;;;;12.85;8.68;;;19.00;57.60;;;;;;5014926;28;20077;-57
2021/05/19 01:52:45;;;;;;;12.18;8.70;;;19.00;57.50;;;;;;5014521;28;20493;-58
2021/05/19 01:55:13;;;;;;;11.52;8.07;;;19.00;57.50;;;;;;5015153;28;20056;-58
2021/05/19 01:57:41;;;;;;;11.63;8.30;;;19.00;57.50;;;;;;5014207;28;20063;-58
2021/05/19 02:00:08;;;;;;;13.13;7.78;;;19.00;57.50;;;;;;5014371;28;20044;-57
2021/05/19 02:02:33;;;;;;;10.48;7.32;;;19.00;57.40;;;;;;5014149;28;20047;-58
2021/05/19 02:05:00;;;;;;;15.35;7.57;;;19.00;57.40;;;;;;5014371;28;20179;-58
2021/05/19 02:07:26;;;;;;;9.98;6.95;;;19.00;57.40;;;;;;5014632;28;20151;-57
2021/05/19 02:09:51;;;;;;;11.23;7.50;;;19.00;57.30;;;;;;5014149;28;20521;-59
2021/05/19 02:12:17;;;;;;;16.63;7.47;;;19.00;57.30;;;;;;5014438;28;20053;-57
2021/05/19 02:14:44;;;;;;;11.55;6.72;;;19.00;57.30;;;;;;5014056;28;20053;-57
2021/05/19 02:17:09;;;;;;;11.70;7.07;;;19.00;57.30;;;;;;5013708;28;20564;-57
2021/05/19 02:19:35;;;;;;;11.02;6.63;;;18.90;57.30;;;;;;5013997;28;20059;-57
2021/05/19 02:22:02;;;;;;;10.30;6.78;;;19.00;57.40;;;;;;5014276;28;20156;-57
2021/05/19 02:24:28;;;;;;;11.43;6.43;;;18.90;57.30;;;;;;5013693;28;20058;-57
2021/05/19 02:26:54;;;;;;;8.57;5.75;;;18.90;57.20;;;;;;5014225;28;20061;-58
2021/05/19 02:29:20;;;;;;;8.95;6.03;;;18.90;57.20;;;;;;5013996;28;20564;-59
2021/05/19 02:31:46;;;;;;;9.50;6.13;;;18.90;57.20;;;;;;5013607;28;20087;-57
2021/05/19 02:34:12;;;;;;;11.25;6.22;;;18.90;57.10;;;;;;5013973;28;20073;-58
2021/05/19 02:36:39;;;;;;;9.57;5.82;;;18.90;57.10;;;;;;5013830;28;20073;-57
2021/05/19 02:39:08;;;;;;;10.02;5.82;;;18.90;57.10;;;;;;5013891;28;20054;-58
2021/05/19 02:41:34;;;;;;;9.10;5.50;;;18.90;57.00;;;;;;5013553;28;20117;-58
2021/05/19 02:44:00;;;;;;;10.23;6.00;;;18.90;57.60;;;;;;5013804;28;20045;-58
2021/05/19 02:46:26;;;;;;;9.23;5.55;;;18.90;57.00;;;;;;5013243;28;20057;-58
2021/05/19 02:49:00;;;;;;;9.25;6.05;;;18.90;57.00;;;;;;5013652;28;20493;-57
2021/05/19 02:51:26;;;;;;;9.07;4.97;;;18.90;56.90;;;;;;5013548;28;20053;-58
2021/05/19 02:53:52;;;;;;;7.82;5.18;;;18.90;57.00;;;;;;5013891;28;20184;-58
2021/05/19 02:56:18;;;;;;;9.60;5.57;;;18.90;56.90;;;;;;5013309;28;20516;-58
2021/05/19 02:58:44;;;;;;;8.32;4.57;;;18.90;56.90;;;;;;5013516;28;20050;-57
2021/05/19 03:01:09;;;;;;;8.57;5.22;;;18.90;56.90;;;;;;5013450;28;20043;-59
2021/05/19 03:03:35;;;;;;;7.80;4.88;;;18.90;56.90;;;;;;5013373;28;20544;-57
2021/05/19 03:06:00;;;;;;;7.90;4.95;;;18.90;56.90;;;;;;5013561;28;20057;-58
2021/05/19 03:08:26;;;;;;;7.57;4.60;;;18.90;56.90;;;;;;5012803;28;20404;-58
2021/05/19 03:10:52;;;;;;;8.65;5.03;;;18.90;56.90;;;;;;5013526;28;20379;-58
2021/05/19 03:13:17;;;;;;;7.50;4.35;;;18.90;56.90;;;;;;5013056;28;20041;-59
2021/05/19 03:15:43;;;;;;;7.57;4.72;;;18.90;56.90;;;;;;5012902;28;20079;-57
2021/05/19 03:18:09;;;;;;;6.97;4.57;;;18.90;56.90;;;;;;5012971;28;20062;-57
2021/05/19 03:20:34;;;;;;;7.90;4.55;;;18.90;56.90;;;;;;5013204;28;20056;-57
2021/05/19 03:23:00;;;;;;;9.50;4.63;;;18.90;56.90;;;;;;5012875;28;20137;-58
2021/05/19 03:25:26;;;;;;;7.55;4.47;;;18.90;56.80;;;;;;5013245;28;20045;-59
2021/05/19 03:27:51;;;;;;;8.77;4.20;;;18.90;56.80;;;;;;5012734;28;20049;-59
2021/05/19 03:30:18;;;;;;;6.50;4.10;;;18.90;56.80;;;;;;5013380;28;20140;-57
2021/05/19 03:32:44;;;;;;;5.82;3.88;;;18.90;56.90;;;;;;5012973;28;20045;-58
2021/05/19 03:35:10;;;;;;;8.10;4.93;;;18.90;56.80;;;;;;5012997;28;20534;-58
2021/05/19 03:37:37;;;;;;;8.65;4.50;;;18.90;56.80;;;;;;5012974;28;20104;-58
2021/05/19 03:40:07;;;;;;;5.88;3.67;;;18.80;56.70;;;;;;5012744;28;20492;-58
2021/05/19 03:42:33;;;;;;;7.75;4.57;;;18.90;56.80;;;;;;5012828;28;20051;-58
2021/05/19 03:44:59;;;;;;;6.80;4.45;;;18.80;56.70;;;;;;5012761;28;20041;-59
2021/05/19 03:47:25;;;;;;;6.47;4.00;;;18.80;56.70;;;;;;5013331;28;20052;-57
2021/05/19 03:49:51;;;;;;;7.07;3.78;;;18.80;56.80;;;;;;5012773;28;20045;-59
2021/05/19 03:52:17;;;;;;;8.20;4.15;;;18.80;56.70;;;;;;5013009;28;20056;-58
2021/05/19 03:54:44;;;;;;;6.50;3.55;;;18.80;56.70;;;;;;5011382;28;20139;-58
2021/05/19 03:57:10;;;;;;;7.28;4.43;;;18.90;57.40;;;;;;5012643;28;20131;-58
2021/05/19 03:59:37;;;;;;;6.45;3.80;;;18.80;56.70;;;;;;5012754;28;20580;-58
2021/05/19 04:02:03;;;;;;;6.40;3.65;;;18.80;56.60;;;;;;5012901;28;20041;-58
2021/05/19 04:04:29;;;;;;;6.78;3.15;;;18.80;56.70;;;;;;5012259;28;20437;-61
2021/05/19 04:06:55;;;;;;;7.25;3.55;;;18.80;56.60;;;;;;5012884;28;20052;-57
2021/05/19 04:09:20;;;;;;;6.30;3.35;;;18.80;56.60;;;;;;5012616;28;20041;-58
2021/05/19 04:11:46;;;;;;;8.15;3.97;;;18.80;56.60;;;;;;5012967;28;20045;-59
2021/05/19 04:14:12;;;;;;;6.13;3.85;;;18.80;56.60;;;;;;5012873;28;20076;-58
2021/05/19 04:16:39;;;;;;;5.85;3.50;;;18.80;56.50;;;;;;5012716;28;20108;-58
2021/05/19 04:19:05;;;;;;;6.05;3.03;;;18.80;56.50;;;;;;5013187;28;20097;-58
2021/05/19 04:21:31;;;;;;;7.47;3.00;;;18.80;56.50;;;;;;5016165;28;20406;-58
2021/05/19 04:23:57;;;;;;;8.45;3.17;;;18.80;56.50;;;;;;5016531;28;20050;-57
2021/05/19 04:26:23;;;;;;;6.25;3.45;;;18.80;56.40;;;;;;5015861;28;20488;-57
2021/05/19 04:28:49;;;;;;;5.18;3.03;;;18.80;56.40;;;;;;5016319;28;20049;-57
2021/05/19 04:31:15;;;;;;;4.43;2.88;;;18.80;56.40;;;;;;5016078;28;20078;-58
2021/05/19 04:33:40;;;;;;;5.00;3.00;;;18.80;56.40;;;;;;5016226;28;20131;-57
2021/05/19 04:36:06;;;;;;;5.47;2.80;;;18.80;56.40;;;;;;5015758;28;20065;-58
2021/05/19 04:38:32;;;;;;;5.13;3.38;;;18.80;56.30;;;;;;5016033;28;20045;-58
2021/05/19 04:40:58;;;;;;;5.45;2.65;;;18.80;56.30;;;;;;5022096;28;20282;-57
2021/05/19 04:43:25;;;;;;;5.72;2.70;;;18.80;56.30;;;;;;5035163;28;20037;-57
2021/05/19 04:45:51;;;;;;;6.57;3.20;;;18.80;56.30;;;;;;5034233;28;20047;-57
2021/05/19 04:48:16;;;;;;;6.30;3.10;;;18.80;56.90;;;;;;5035273;28;20062;-58
2021/05/19 04:50:42;;;;;;;6.45;3.05;;;18.80;56.30;;;;;;5029948;28;20053;-57
2021/05/19 04:53:08;;;;;;;7.00;3.30;;;18.80;56.30;;;;;;5015166;28;20110;-57
2021/05/19 04:55:36;;;;;;;6.57;3.85;;;18.80;56.20;;;;;;5013218;28;20048;-61
2021/05/19 04:58:02;;;;;;;5.28;3.03;;;18.80;56.30;;;;;;5015465;28;20064;-65
2021/05/19 05:00:27;;;;;;;5.97;2.85;;;18.80;56.20;;;;;;5015740;28;20042;-58
2021/05/19 05:02:53;;;;;;;4.85;2.80;;;18.80;56.30;;;;;;5015367;28;20052;-57
2021/05/19 05:05:19;;;;;;;6.82;2.83;;;18.80;56.30;;;;;;5015490;28;20090;-57
2021/05/19 05:07:45;;;;;;;5.53;2.85;;;18.80;56.30;;;;;;5015203;28;20095;-59
2021/05/19 05:10:11;;;;;;;5.57;2.90;;;18.70;56.30;;;;;;5015240;28;20127;-58
2021/05/19 05:12:37;;;;;;;5.00;2.78;;;18.80;56.30;;;;;;5015502;28;20041;-58
2021/05/19 05:15:10;;;;;;;4.75;2.92;;;18.80;56.40;;;;;;5014960;28;20044;-62
2021/05/19 05:17:35;;;;;;;4.15;2.40;;;18.70;56.30;;;;;;5015095;28;20084;-57
2021/05/19 05:20:02;;;;;;;4.45;2.50;;;18.80;56.30;;;;;;5015069;28;20049;-58
2021/05/19 05:22:27;;;;;;;5.43;2.90;;;18.80;56.30;;;;;;5015104;28;20049;-58
2021/05/19 05:24:53;;;;;;;5.50;2.80;;;18.70;56.30;;;;;;5014647;28;20116;-58
2021/05/19 05:27:19;;;;;;;5.82;2.70;;;18.80;56.30;;;;;;5015382;28;20407;-58
2021/05/19 05:29:45;;;;;;;4.93;2.80;;;18.70;56.20;;;;;;5014739;28;20049;-58
2021/05/19 05:32:11;;;;;;;5.72;3.15;;;18.70;56.30;;;;;;5014356;28;20140;-57
2021/05/19 05:34:37;;;;;;;6.47;2.85;;;18.70;56.30;;;;;;5014722;28;20140;-59
2021/05/19 05:37:04;;;;;;;4.80;2.72;;;18.70;56.30;;;;;;5034427;28;20056;-58
2021/05/19 05:39:30;;;;;;;5.40;3.00;;;18.70;56.20;;;;;;5034087;28;20061;-59
2021/05/19 05:41:56;;;;;;;5.88;3.28;;;18.70;56.30;;;;;;5034412;28;20042;-58
2021/05/19 05:44:22;;;;;;;5.90;3.05;;;18.70;56.20;;;;;;5034718;28;20061;-57
2021/05/19 05:46:48;;;;;;;4.03;2.60;;;18.70;56.30;;;;;;5034125;28;20490;-58
2021/05/19 05:49:14;;;;;;;6.05;3.03;;;18.70;56.30;;;;;;5034181;28;20490;-57
2021/05/19 05:51:39;;;;;;;6.18;3.08;;;18.70;56.20;;;;;;5033803;28;20056;-58
2021/05/19 05:54:05;;;;;;;4.63;2.67;;;18.70;56.20;;;;;;5033445;28;20044;-57
2021/05/19 05:56:31;;;;;;;5.00;3.00;;;18.70;56.20;;;;;;5033754;28;20064;-61
2021/05/19 05:58:57;;;;;;;5.88;2.72;;;18.70;56.20;;;;;;5034303;28;20057;-58
2021/05/19 06:01:22;;;;;;;4.38;2.53;;;18.70;56.30;;;;;;5033900;28;20140;-59
2021/05/19 06:03:48;;;;;;;5.55;2.70;;;18.70;56.30;;;;;;5034059;28;20555;-58
2021/05/19 06:06:13;;;;;;;3.88;2.45;;;18.70;56.30;;;;;;5033586;28;20501;-57
2021/05/19 06:08:39;;;;;;;4.95;2.88;;;18.70;56.30;;;;;;5033982;28;20053;-59
2021/05/19 06:11:07;;;;;;;4.90;2.92;;;18.70;56.30;;;;;;5034140;28;20123;-61
2021/05/19 06:13:33;;;;;;;6.10;2.67;;;18.70;56.40;;;;;;5034032;28;20059;-71
2021/05/19 06:15:59;;;;;;;4.93;2.95;;;18.70;56.30;;;;;;5033725;28;20061;-60
2021/05/19 06:18:25;;;;;;;4.00;2.33;;;18.70;56.30;;;;;;5033433;28;20072;-62
2021/05/19 06:20:51;;;;;;;7.05;2.95;;;18.80;56.30;;;;;;5033821;28;20174;-60
2021/05/19 06:23:17;;;;;;;6.30;2.78;;;18.80;56.90;;;;;;5033212;28;20129;-62
2021/05/19 06:25:42;;;;;;;4.20;2.50;;;18.80;56.50;;;;;;5033736;28;20053;-62
2021/05/19 06:28:08;;;;;;;5.05;2.47;;;18.80;57.10;;;;;;5033475;28;20141;-67
2021/05/19 06:30:34;;;;;;;6.85;2.63;;;18.80;56.50;;;;;;5033890;28;20041;-62
2021/05/19 06:33:00;;;;;;;7.95;2.45;;;18.80;56.50;;;;;;5033403;28;20048;-61
2021/05/19 06:35:26;;;;;;;3.25;2.15;;;18.80;56.60;;;;;;5033262;28;20135;-60
2021/05/19 06:37:51;;;;;;;11.35;2.78;;;18.80;56.60;;;;;;5032992;28;20052;-61
2021/05/19 06:40:17;;;;;;;6.18;2.38;;;18.80;56.60;;;;;;5033687;28;20045;-60
2021/05/19 06:42:43;;;;;;;30.13;20.48;;;18.60;56.50;;;;;;5032711;28;20099;-61
2021/05/19 06:45:09;;;;;;;45.08;28.08;;;18.50;56.70;;;;;;5032838;28;20049;-60
2021/05/19 06:47:34;;;;;;;39.35;27.48;;;18.40;56.40;;;;;;5033181;28;20051;-58
2021/05/19 06:50:00;;;;;;;58.65;41.72;;;18.40;56.10;;;;;;5029663;28;20083;-59
2021/05/19 06:52:26;;;;;;;56.55;39.95;;;18.40;55.70;;;;;;5018686;28;20056;-56
2021/05/19 06:54:53;;;;;;;37.70;23.15;;;18.30;55.90;;;;;;5013813;28;20133;-59
2021/05/19 06:57:18;;;;;;;35.58;19.67;;;18.30;55.40;;;;;;5016560;28;20092;-57
2021/05/19 06:59:44;;;;;;;17.02;11.10;;;18.30;55.20;;;;;;5023601;28;20045;-58
2021/05/19 07:02:10;;;;;;;19.77;9.55;;;18.30;54.90;;;;;;5022717;28;20045;-58
2021/05/19 07:04:35;;;;;;;17.05;11.50;;;18.30;54.70;;;;;;5021343;28;20085;-55
2021/05/19 07:07:01;;;;;;;16.25;10.07;;;18.30;54.50;;;;;;5020941;28;20042;-58
2021/05/19 07:09:27;;;;;;;9.43;6.18;;;18.30;54.20;;;;;;5013193;28;20128;-55
2021/05/19 07:11:53;;;;;;;8.40;5.30;;;18.40;53.90;;;;;;5015639;28;20053;-53
2021/05/19 07:14:19;;;;;;;10.27;4.50;;;18.40;53.80;;;;;;5015321;28;20049;-55
2021/05/19 07:16:55;;;;;;;6.80;3.15;;;18.40;53.70;;;;;;5021871;28;20072;-58
2021/05/19 07:19:22;;;;;;;9.57;3.28;;;18.40;53.60;;;;;;5022277;28;20112;-58
2021/05/19 07:21:48;;;;;;;4.70;1.80;;;18.40;53.40;;;;;;5019192;28;20043;-58
2021/05/19 07:24:14;;;;;;;6.07;2.40;;;18.40;53.10;;;;;;5026212;28;20063;-58
2021/05/19 07:26:42;;;;;;;8.38;3.85;;;18.40;52.80;;;;;;5032693;28;20054;-58
2021/05/19 07:29:08;;;;;;;9.52;5.38;;;18.40;52.90;;;;;;5032865;28;20057;-57
2021/05/19 07:31:34;;;;;;;13.65;7.55;;;18.40;53.00;;;;;;5032541;28;20052;-58
2021/05/19 07:34:01;;;;;;;12.20;8.07;;;18.50;53.20;;;;;;5032932;28;20124;-58
2021/05/19 07:36:27;;;;;;;14.27;9.82;;;18.50;53.10;;;;;;5032741;28;20073;-57
2021/05/19 07:38:54;;;;;;;15.60;10.23;;;18.50;52.90;;;;;;5032811;28;20571;-57
2021/05/19 07:41:21;;;;;;;14.70;8.98;;;18.50;52.80;;;;;;5032459;28;20045;-58
2021/05/19 07:43:47;;;;;;;12.38;7.80;;;18.60;52.00;;;;;;5032982;28;20044;-56
2021/05/19 07:46:13;;;;;;;9.07;5.10;;;18.60;51.60;;;;;;5032413;28;20053;-58
2021/05/19 07:48:38;;;;;;;5.50;2.65;;;18.60;49.90;;;;;;5031715;28;20057;-56
2021/05/19 07:51:04;;;;;;;4.60;1.77;;;18.60;45.80;;;;;;5032708;28;20134;-58
2021/05/19 07:53:30;;;;;;;3.60;1.40;;;18.50;43.80;;;;;;5032541;28;20055;-57
2021/05/19 07:58:26;;;;;;;4.43;1.63;;;18.50;43.70;;;;;;5036465;28;20137;-57
2021/05/19 08:03:17;;;;;;;3.35;2.17;;;18.60;43.20;;;;;;5035744;28;20379;-59
2021/05/19 08:05:44;;;;;;;4.78;1.40;;;18.60;43.20;;;;;;5036915;28;20045;-59
2021/05/19 08:08:10;;;;;;;2.80;1.63;;;18.70;43.80;;;;;;5036604;28;20436;-59
2021/05/19 08:10:37;;;;;;;3.78;1.30;;;18.70;44.70;;;;;;5036424;28;20555;-58
2021/05/19 08:13:03;;;;;;;2.63;1.08;;;18.70;45.60;;;;;;5035826;28;20047;-58
2021/05/19 08:15:29;;;;;;;5.10;1.50;;;18.70;43.80;;;;;;5035922;28;20051;-58
2021/05/19 08:17:54;;;;;;;5.25;1.20;;;18.70;44.40;;;;;;5035571;28;20096;-58
2021/05/19 08:20:21;;;;;;;3.70;1.45;;;18.70;44.60;;;;;;5036201;28;20480;-59
2021/05/19 08:22:48;;;;;;;1.20;1.00;;;18.70;43.80;;;;;;5036097;28;20472;-58
2021/05/19 08:25:14;;;;;;;1.27;0.80;;;18.70;44.40;;;;;;5036000;28;20477;-56
2021/05/19 08:27:39;;;;;;;3.83;1.35;;;18.70;44.60;;;;;;5035963;28;20059;-56
2021/05/19 08:30:09;;;;;;;2.30;0.90;;;18.70;45.20;;;;;;5035627;28;20045;-55
2021/05/19 08:32:35;;;;;;;2.33;0.98;;;18.70;43.30;;;;;;5031996;28;20057;-56
2021/05/19 08:35:01;;;;;;;2.97;1.20;;;18.70;44.00;;;;;;5029731;28;20046;-59
2021/05/19 08:37:26;;;;;;;3.13;0.93;;;18.70;43.80;;;;;;5035700;28;20512;-58
2021/05/19 08:39:52;;;;;;;1.75;0.98;;;18.70;42.70;;;;;;5033303;28;20049;-57
2021/05/19 08:42:17;;;;;;;2.72;1.38;;;18.70;43.20;;;;;;5025194;28;20078;-62
2021/05/19 08:44:43;;;;;;;4.82;1.95;;;18.70;44.90;;;;;;5023230;28;20116;-59
2021/05/19 08:47:11;;;;;;;5.80;3.85;;;18.70;45.00;;;;;;5024445;28;20053;-57
2021/05/19 08:49:39;;;;;;;8.65;5.45;;;18.70;45.60;;;;;;5024809;28;20082;-58
2021/05/19 08:52:05;;;;;;;8.52;6.03;;;18.70;46.40;;;;;;5025450;28;20129;-56
2021/05/19 08:54:31;;;;;;;11.23;7.85;;;18.70;44.80;;;;;;5026095;28;20050;-57
2021/05/19 08:56:56;;;;;;;15.43;9.82;;;18.70;44.60;;;;;;5023582;28;20112;-59
2021/05/19 08:59:22;;;;;;;12.07;9.60;;;18.70;46.80;;;;;;5024991;28;20617;-63
2021/05/19 09:01:50;;;;;;;10.02;7.68;;;18.80;46.90;;;;;;5023108;28;20424;-69
2021/05/19 09:04:22;;;;;;;11.68;8.07;;;18.80;45.10;;;;;;5023851;28;20084;-59
2021/05/19 09:06:59;;;;;;;17.33;11.18;;;18.80;46.30;;;;;;5022252;28;20065;-72
2021/05/19 09:09:26;;;;;;;10.52;7.13;;;18.80;44.00;;;;;;5023156;28;20056;-59
2021/05/19 09:11:59;;;;;;;12.90;7.25;;;18.80;40.50;;;;;;5023705;28;20408;-59
2021/05/19 09:14:27;;;;;;;11.57;7.18;;;18.80;41.40;;;;;;5024614;28;20048;-57
2021/05/19 09:16:52;;;;;;;11.65;6.75;;;18.80;42.80;;;;;;5023345;28;20075;-56
2021/05/19 09:19:33;;;;;;;10.68;6.30;;;18.70;44.60;;;;;;5023422;28;20149;-66
2021/05/19 09:21:59;;;;;;;11.88;6.78;;;18.80;43.90;;;;;;5024682;28;20060;-60
2021/05/19 09:24:38;;;;;;;8.13;5.22;;;18.80;44.90;;;;;;5027317;28;20036;-63
2021/05/19 09:27:04;;;;;;;8.05;4.93;;;18.70;44.20;;;;;;5022237;28;20058;-58
2021/05/19 09:29:37;;;;;;;8.93;4.93;;;18.80;44.50;;;;;;5024141;28;20050;-60
2021/05/19 09:32:08;;;;;;;6.40;4.25;;;18.70;44.50;;;;;;5024393;28;20044;-59
2021/05/19 09:34:39;;;;;;;6.70;4.03;;;18.70;44.40;;;;;;5023778;28;20048;-59
2021/05/19 09:37:13;;;;;;;7.63;3.70;;;18.80;44.70;;;;;;5022221;28;20074;-59
2021/05/19 09:39:49;;;;;;;4.50;2.63;;;18.70;44.70;;;;;;5022464;28;20504;-63
2021/05/19 09:42:17;;;;;;;5.18;2.55;;;18.80;44.40;;;;;;5019696;28;20049;-61
2021/05/19 09:44:45;;;;;;;5.53;2.55;;;18.80;44.50;;;;;;5014759;28;20051;-59
2021/05/19 09:47:11;;;;;;;5.15;2.58;;;18.80;44.50;;;;;;5014339;28;20081;-58
2021/05/19 09:49:37;;;;;;;5.05;2.72;;;18.80;44.70;;;;;;5014339;28;20449;-59
2021/05/19 09:52:14;;;;;;;11.82;8.50;;;18.80;44.50;;;;;;5014440;28;20047;-59
2021/05/19 09:54:45;;;;;;;15.55;10.48;;;18.80;44.50;;;;;;5026351;28;20402;-60
2021/05/19 09:57:31;;;;;;;22.40;15.40;;;18.80;44.70;;;;;;5034060;28;20069;-60
2021/05/19 09:59:59;;;;;;;31.00;22.02;;;18.80;45.00;;;;;;5034187;28;20047;-63
2021/05/19 10:02:30;;;;;;;31.75;22.63;;;18.80;45.10;;;;;;5034088;28;20050;-60
2021/05/19 10:05:02;;;;;;;32.83;23.02;;;18.80;44.40;;;;;;5033980;28;20544;-60
2021/05/19 10:07:30;;;;;;;29.30;20.10;;;18.80;45.90;;;;;;5033723;28;20501;-62
2021/05/19 10:09:55;;;;;;;27.25;15.45;;;18.80;45.70;;;;;;5032102;28;20041;-63
2021/05/19 10:12:21;;;;;;;30.38;19.05;;;18.80;43.90;;;;;;5033164;28;20532;-62
2021/05/19 10:14:48;;;;;;;19.45;12.52;;;18.80;44.10;;;;;;5034111;28;20049;-62
2021/05/19 10:17:15;;;;;;;20.25;13.45;;;18.70;43.80;;;;;;5033377;28;20135;-61
2021/05/19 10:20:01;;;;;;;17.95;13.25;;;18.80;44.60;;;;;;5033552;28;20133;-62
2021/05/19 10:22:28;;;;;;;14.68;9.13;;;18.80;44.90;;;;;;5033076;28;20485;-62
2021/05/19 10:27:25;;;;;;;16.48;10.02;;;18.80;43.20;;;;;;5033534;28;20044;-62
2021/05/19 10:29:53;;;;;;;9.10;5.30;;;18.80;44.10;;;;;;5033649;28;20135;-61
2021/05/19 10:32:22;;;;;;;12.32;7.32;;;18.80;42.90;;;;;;5033785;28;20051;-62
2021/05/19 10:34:53;;;;;;;10.90;6.90;;;18.80;43.50;;;;;;5033607;28;20067;-62
2021/05/19 10:37:50;;;;;;;13.15;7.65;;;18.70;44.10;;;;;;5033550;28;20138;-61
2021/05/19 10:40:18;;;;;;;8.77;5.20;;;18.80;44.60;;;;;;5033385;28;20421;-61
2021/05/19 10:42:54;;;;;;;7.40;4.60;;;18.80;44.00;;;;;;5033625;28;20045;-62
2021/05/19 10:45:20;;;;;;;7.45;4.97;;;18.80;44.00;;;;;;5033164;28;20136;-61
2021/05/19 10:47:47;;;;;;;7.40;3.60;;;18.80;44.40;;;;;;5033201;28;20065;-61
2021/05/19 10:50:37;;;;;;;7.45;3.67;;;18.80;43.90;;;;;;5032946;28;20058;-61
2021/05/19 10:59:03;;;;;;;4.50;2.35;;;18.80;42.20;;;;;;5033546;28;20064;-61
2021/05/19 11:01:42;;;;;;;4.40;2.17;;;18.80;42.80;;;;;;5033103;28;20083;-60
2021/05/19 11:04:29;;;;;;;5.35;2.53;;;18.80;41.60;;;;;;5032909;28;20112;-60
2021/05/19 11:06:57;;;;;;;3.47;1.63;;;18.80;43.50;;;;;;5032354;28;20059;-63
2021/05/19 11:09:25;;;;;;;4.47;2.20;;;18.80;42.20;;;;;;5024090;28;20518;-60
2021/05/19 11:11:51;;;;;;;5.55;2.45;;;18.80;43.20;;;;;;5019580;28;20049;-61
2021/05/19 11:14:48;;;;;;;5.10;2.70;;;18.80;43.40;;;;;;5013064;28;20058;-61
2021/05/19 11:19:39;;;;;;;7.45;4.03;;;18.80;42.10;;;;;;5013265;28;20045;-61
2021/05/19 11:22:06;;;;;;;6.13;3.63;;;18.80;42.20;;;;;;5012932;28;20193;-61
2021/05/19 11:24:58;;;;;;;6.55;3.30;;;18.80;42.30;;;;;;5013099;28;20041;-61
2021/05/19 11:27:26;;;;;;;6.20;3.42;;;18.80;41.20;;;;;;5012785;28;20547;-60
2021/05/19 11:29:53;;;;;;;5.68;2.67;;;18.80;40.90;;;;;;5012279;28;20050;-61
2021/05/19 11:32:25;;;;;;;8.43;2.92;;;18.80;40.50;;;;;;5012822;28;20041;-60
2021/05/19 11:34:51;;;;;;;4.72;2.17;;;18.90;38.80;;;;;;5012815;28;20056;-60
2021/05/19 11:37:19;;;;;;;4.95;2.15;;;18.90;38.80;;;;;;5012539;28;20540;-59
2021/05/19 11:39:46;;;;;;;2.35;1.38;;;18.90;38.50;;;;;;5012705;28;20103;-59
2021/05/19 11:42:24;;;;;;;2.63;1.23;;;18.90;38.50;;;;;;5012314;28;20041;-60
2021/05/19 11:44:58;;;;;;;4.13;1.40;;;18.90;38.10;;;;;;5011708;28;20410;-60
2021/05/19 11:47:39;;;;;;;3.28;1.27;;;18.90;38.60;;;;;;5012614;28;20061;-60
2021/05/19 11:50:15;;;;;;;4.55;1.45;;;18.90;38.30;;;;;;5012754;28;20048;-60
2021/05/19 11:52:58;;;;;;;1.70;0.73;;;18.90;39.10;;;;;;5012382;28;20131;-60
2021/05/19 11:55:32;;;;;;;2.53;0.90;;;18.90;38.40;;;;;;5012864;28;20045;-58
2021/05/19 11:58:20;;;;;;;1.75;1.20;;;18.90;38.70;;;;;;5011340;28;20069;-71
2021/05/19 12:00:55;;;;;;;2.42;0.98;;;18.90;38.70;;;;;;5012694;28;20051;-59
2021/05/19 12:03:24;;;;;;;3.65;0.90;;;18.80;39.00;;;;;;5011863;28;20442;-58
2021/05/19 12:06:07;;;;;;;3.08;0.80;;;18.80;39.60;;;;;;5011642;28;20185;-58
2021/05/19 12:08:44;;;;;;;3.05;0.80;;;18.80;40.00;;;;;;5011370;28;20046;-59
2021/05/19 12:11:24;;;;;;;2.25;0.73;;;18.80;40.20;;;;;;5012046;28;20048;-58
2021/05/19 12:13:56;;;;;;;0.88;0.68;;;18.80;40.60;;;;;;5012398;28;20063;-58
2021/05/19 12:16:30;;;;;;;1.88;0.77;;;18.80;40.50;;;;;;5012231;28;20081;-58
2021/05/19 12:19:08;;;;;;;4.53;1.17;;;18.80;40.70;;;;;;5012297;28;20074;-58
2021/05/19 12:21:39;;;;;;;2.60;0.70;;;18.80;40.70;;;;;;5012527;28;20052;-59
2021/05/19 12:24:06;;;;;;;1.77;0.80;;;18.80;41.00;;;;;;5012193;28;20043;-60
2021/05/19 12:26:37;;;;;;;1.15;0.70;;;18.80;41.20;;;;;;5012458;28;20052;-58
2021/05/19 12:29:24;;;;;;;1.80;0.77;;;18.80;41.30;;;;;;5012571;28;20539;-58
2021/05/19 12:31:50;;;;;;;2.22;0.82;;;18.80;41.50;;;;;;5012146;28;20061;-58
2021/05/19 12:34:17;;;;;;;1.40;0.70;;;18.80;41.80;;;;;;5011982;28;20043;-58
2021/05/19 12:36:53;;;;;;;4.47;1.10;;;18.80;41.80;;;;;;5012127;28;20070;-58
2021/05/19 12:39:28;;;;;;;1.50;0.70;;;18.80;42.10;;;;;;5012540;28;20085;-57
2021/05/19 12:41:57;;;;;;;1.73;0.63;;;18.80;42.20;;;;;;5013716;28;20056;-57
2021/05/19 12:44:30;;;;;;;2.08;0.70;;;18.80;42.30;;;;;;5015961;28;20090;-57
2021/05/19 12:47:06;;;;;;;1.52;0.80;;;18.80;42.50;;;;;;5015305;28;20056;-57
2021/05/19 12:49:37;;;;;;;4.65;0.98;;;18.90;42.60;;;;;;5015552;28;20042;-59
2021/05/19 12:52:05;;;;;;;1.85;0.65;;;18.80;42.70;;;;;;5015639;28;20057;-59
2021/05/19 12:54:33;;;;;;;2.17;0.82;;;18.80;43.00;;;;;;5015874;28;20088;-58
2021/05/19 12:57:04;;;;;;;2.05;0.75;;;18.80;43.10;;;;;;5015474;28;20097;-58
2021/05/19 13:00:11;;;;;;;4.28;0.80;;;18.90;43.10;;;;;;5015768;28;20089;-57
2021/05/19 13:02:36;;;;;;;0.88;0.65;;;18.90;43.30;;;;;;5015435;28;20080;-57
2021/05/19 13:05:04;;;;;;;1.48;0.60;;;18.80;43.40;;;;;;5015415;28;20136;-57
2021/05/19 13:07:30;;;;;;;2.67;0.80;;;18.90;43.60;;;;;;5015138;28;20133;-58